Time;durP1;ratioP1;P1;durP2;ratioP2;P2;SDS_P1;SDS_P2;PMS_P1;PMS_P2;Temp;Humidity;BMP_temperature;BMP_pressure;BME280_temperature;BME280_humidity;BME280_pressure;Samples;Min_cycle;Max_cycle;Signal;HPM_P1;HPM_P2
2024/01/27 00:00:35;;;;;;;;;;;;;;;6.18;76.79;102087.03;4155467;28;20020;-68
2024/01/27 00:02:36;;;;;;;;;;;;;;;6.17;76.64;102091.53;4155220;28;20032;-68
2024/01/27 00:04:38;;;;;;;;;;;;;;;6.16;76.68;102088.97;4156157;28;20032;-68
2024/01/27 00:06:40;;;;;;;;;;;;;;;6.16;77.15;102094.31;4155755;28;20012;-68
2024/01/27 00:08:43;;;;;;;;;;;;;;;6.15;77.35;102090.78;4155767;28;20027;-68
2024/01/27 00:10:45;;;;;;;;;;;;;;;6.15;76.70;102093.47;4155747;28;20029;-68
2024/01/27 00:12:47;;;;;;;;;;;;;;;6.15;76.51;102090.78;4155755;28;20609;-68
2024/01/27 00:14:50;;;;;;;;;;;;;;;6.14;76.44;102097.13;4155626;28;20028;-68
2024/01/27 00:16:52;;;;;;;;;;;;;;;6.15;76.81;102092.63;4155556;28;20012;-68
2024/01/27 00:18:54;;;;;;;;;;;;;;;6.15;76.68;102082.75;4155595;28;19936;-68
2024/01/27 00:20:56;;;;;;;;;;;;;;;6.16;76.81;102088.97;4154511;28;20012;-68
2024/01/27 00:22:58;;;;;;;;;;;;;;;6.16;76.39;102095.19;4154901;28;20013;-68
2024/01/27 00:25:01;;;;;;;;;;;;;;;6.15;75.97;102093.47;4155285;28;20028;-68
2024/01/27 00:27:04;;;;;;;;;;;;;;;6.12;75.75;102097.25;4154988;28;20037;-68
2024/01/27 00:29:05;;;;;;;;;;;;;;;6.12;76.15;102099.91;4155529;28;20028;-68
2024/01/27 00:31:07;;;;;;;;;;;;;;;6.14;76.16;102102.50;4155010;28;19925;-68
2024/01/27 00:33:09;;;;;;;;;;;;;;;6.13;75.38;102101.66;4155433;28;20012;-68
2024/01/27 00:35:14;;;;;;;;;;;;;;;6.11;75.79;102108.09;4155552;28;20025;-68
2024/01/27 00:37:16;;;;;;;;;;;;;;;6.10;75.13;102107.22;4155285;28;20027;-68
2024/01/27 00:39:18;;;;;;;;;;;;;;;6.09;75.04;102086.75;4155093;28;19929;-68
2024/01/27 00:41:21;;;;;;;;;;;;;;;6.09;75.41;102100.16;4154786;28;20427;-68
2024/01/27 00:43:23;;;;;;;;;;;;;;;6.07;74.80;102104.78;4154758;28;20024;-68
2024/01/27 00:45:27;;;;;;;;;;;;;;;6.08;74.90;102108.31;4155169;28;20035;-68
2024/01/27 00:47:29;;;;;;;;;;;;;;;6.07;75.25;102096.72;4154914;28;20024;-68
2024/01/27 00:49:31;;;;;;;;;;;;;;;6.06;74.91;102105.75;4154878;28;20019;-68
2024/01/27 00:51:33;;;;;;;;;;;;;;;6.06;74.72;102110.25;4154803;28;20052;-68
2024/01/27 00:53:35;;;;;;;;;;;;;;;6.06;74.33;102104.91;4154989;28;19999;-68
2024/01/27 00:55:37;;;;;;;;;;;;;;;6.05;74.93;102108.53;4153883;28;20004;-68
2024/01/27 00:57:40;;;;;;;;;;;;;;;6.04;74.78;102104.16;4154278;28;20020;-68
2024/01/27 00:59:41;;;;;;;;;;;;;;;6.04;74.76;102118.41;4153970;28;19929;-68
2024/01/27 01:01:43;;;;;;;;;;;;;;;6.03;74.18;102111.34;4154875;28;19929;-68
2024/01/27 01:03:45;;;;;;;;;;;;;;;6.04;74.30;102117.56;4155584;28;20347;-68
2024/01/27 01:05:47;;;;;;;;;;;;;;;6.04;74.66;102131.84;4155343;28;20015;-68
2024/01/27 01:07:48;;;;;;;;;;;;;;;6.04;74.37;102117.56;4154694;28;20024;-68
2024/01/27 01:09:50;;;;;;;;;;;;;;;6.04;74.13;102117.56;4153271;28;19931;-68
2024/01/27 01:11:51;;;;;;;;;;;;;;;6.03;74.53;102111.34;4169567;28;20473;-68
2024/01/27 01:13:54;;;;;;;;;;;;;;;6.02;74.54;102125.72;4155070;28;19925;-68
2024/01/27 01:15:55;;;;;;;;;;;;;;;6.03;74.24;102137.31;4154853;28;20016;-68
2024/01/27 01:17:57;;;;;;;;;;;;;;;6.03;74.07;102130.09;4154794;28;20465;-68
2024/01/27 01:19:59;;;;;;;;;;;;;;;6.03;74.59;102131.94;4153841;28;19969;-68
2024/01/27 01:22:01;;;;;;;;;;;;;;;6.01;74.08;102140.09;4154535;28;20020;-68
2024/01/27 01:24:02;;;;;;;;;;;;;;;6.03;73.64;102142.66;4154872;28;20064;-68
2024/01/27 01:26:04;;;;;;;;;;;;;;;6.03;74.18;102142.66;4154662;28;20019;-68
2024/01/27 01:28:05;;;;;;;;;;;;;;;6.01;73.78;102134.75;4154525;28;20036;-68
2024/01/27 01:30:10;;;;;;;;;;;;;;;6.02;74.28;102139.16;4154317;28;19940;-68
2024/01/27 01:32:12;;;;;;;;;;;;;;;6.00;73.88;102141.06;4156872;28;20017;-68
2024/01/27 01:34:14;;;;;;;;;;;;;;;5.99;73.52;102136.69;4158169;28;20013;-68
2024/01/27 01:36:16;;;;;;;;;;;;;;;5.99;73.75;102136.69;4158509;28;20029;-68
2024/01/27 01:38:17;;;;;;;;;;;;;;;6.00;73.84;102142.91;4158003;28;20016;-68
2024/01/27 01:40:19;;;;;;;;;;;;;;;5.99;74.00;102142.06;4158499;28;20318;-68
2024/01/27 01:42:23;;;;;;;;;;;;;;;5.99;74.11;102154.59;4157548;28;20435;-68
2024/01/27 01:44:25;;;;;;;;;;;;;;;5.99;74.53;102147.41;4158360;28;20369;-68
2024/01/27 01:46:28;;;;;;;;;;;;;;;5.95;73.97;102138.69;4157784;28;20012;-68
2024/01/27 01:48:30;;;;;;;;;;;;;;;5.95;74.02;102143.19;4157855;28;20027;-68
2024/01/27 01:50:32;;;;;;;;;;;;;;;5.94;73.99;102154.88;4156982;28;20032;-68
2024/01/27 01:52:33;;;;;;;;;;;;;;;5.94;73.98;102149.53;4157190;28;20143;-68
2024/01/27 01:54:35;;;;;;;;;;;;;;;5.91;74.33;102150.63;4157282;28;19933;-68
2024/01/27 01:56:37;;;;;;;;;;;;;;;5.91;74.27;102155.13;4157176;28;20421;-68
2024/01/27 01:58:39;;;;;;;;;;;;;;;5.91;74.31;102160.50;4156855;28;20020;-68
2024/01/27 02:00:41;;;;;;;;;;;;;;;5.91;74.25;102157.81;4157365;28;19926;-68
2024/01/27 02:02:45;;;;;;;;;;;;;;;5.90;74.77;102159.63;4157386;28;20066;-67
2024/01/27 02:04:47;;;;;;;;;;;;;;;5.89;74.35;102159.72;4157447;28;20020;-68
2024/01/27 02:06:49;;;;;;;;;;;;;;;5.89;74.16;102170.47;4157395;28;20023;-68
2024/01/27 02:08:51;;;;;;;;;;;;;;;5.89;74.28;102174.03;4147348;28;20020;-67
2024/01/27 02:10:53;;;;;;;;;;;;;;;5.86;74.06;102179.59;4157440;28;20033;-69
2024/01/27 02:12:55;;;;;;;;;;;;;;;5.85;74.26;102187.75;4157164;28;20044;-68
2024/01/27 02:14:57;;;;;;;;;;;;;;;5.85;74.74;102191.28;4157841;28;20381;-68
2024/01/27 02:16:59;;;;;;;;;;;;;;;5.86;74.62;102181.41;4157684;28;20039;-69
2024/01/27 02:19:02;;;;;;;;;;;;;;;5.86;74.90;102186.78;4157194;28;20398;-69
2024/01/27 02:21:04;;;;;;;;;;;;;;;5.86;74.98;102181.41;4156919;28;19983;-66
2024/01/27 02:23:06;;;;;;;;;;;;;;;5.85;74.57;102188.59;4157309;28;20016;-67
2024/01/27 02:25:10;;;;;;;;;;;;;;;5.85;75.06;102193.13;4157281;28;20372;-69
2024/01/27 02:27:12;;;;;;;;;;;;;;;5.84;74.85;102186.03;4156936;28;20028;-67
2024/01/27 02:29:13;;;;;;;;;;;;;;;5.83;74.72;102193.22;4157049;28;20019;-67
2024/01/27 02:31:15;;;;;;;;;;;;;;;5.84;74.76;102191.41;4156536;28;20342;-68
2024/01/27 02:33:17;;;;;;;;;;;;;;;5.84;74.52;102197.59;4157776;28;20016;-67
2024/01/27 02:35:19;;;;;;;;;;;;;;;5.84;74.91;102194.91;4157096;28;20462;-67
2024/01/27 02:37:21;;;;;;;;;;;;;;;5.85;75.18;102201.16;4156852;28;20020;-67
2024/01/27 02:39:22;;;;;;;;;;;;;;;5.85;74.89;102209.22;4156730;28;20044;-67
2024/01/27 02:41:25;;;;;;;;;;;;;;;5.86;75.31;102202.84;4156709;28;19925;-68
2024/01/27 02:43:27;;;;;;;;;;;;;;;5.85;75.41;102201.16;4155542;28;20012;-67
2024/01/27 02:45:29;;;;;;;;;;;;;;;5.85;75.36;102206.53;4157015;28;20371;-67
2024/01/27 02:47:30;;;;;;;;;;;;;;;5.84;74.94;102210.16;4156955;28;19925;-67
2024/01/27 02:49:32;;;;;;;;;;;;;;;5.84;75.40;102200.28;4171734;28;19987;-68
2024/01/27 02:51:34;;;;;;;;;;;;;;;5.87;75.40;102210.78;4156823;28;20355;-70
2024/01/27 02:53:36;;;;;;;;;;;;;;;5.86;75.54;102202.84;4156944;28;20024;-69
2024/01/27 02:55:38;;;;;;;;;;;;;;;5.87;75.99;102220.66;4156639;28;20016;-69
2024/01/27 02:57:42;;;;;;;;;;;;;;;5.87;75.87;102209.94;4156294;28;20024;-67
2024/01/27 02:59:45;;;;;;;;;;;;;;;5.87;75.64;102218.84;4156267;28;20037;-67
2024/01/27 03:01:47;;;;;;;;;;;;;;;5.87;75.66;102218.00;4156318;28;19957;-67
2024/01/27 03:03:49;;;;;;;;;;;;;;;5.87;75.52;102223.34;4156709;28;20007;-67
2024/01/27 03:05:51;;;;;;;;;;;;;;;5.86;75.48;102222.50;4156438;28;20016;-68
2024/01/27 03:07:53;;;;;;;;;;;;;;;5.88;75.44;102225.94;4156715;28;20016;-68
2024/01/27 03:09:55;;;;;;;;;;;;;;;5.87;75.08;102226.88;4155998;28;20021;-67
2024/01/27 03:11:57;;;;;;;;;;;;;;;5.86;75.40;102238.59;4156788;28;20032;-67
2024/01/27 03:14:01;;;;;;;;;;;;;;;5.88;75.46;102227.75;4156521;28;20028;-68
2024/01/27 03:16:02;;;;;;;;;;;;;;;5.87;75.11;102234.09;4156680;28;20554;-68
2024/01/27 03:18:04;;;;;;;;;;;;;;;5.86;75.32;102232.34;4158341;28;20367;-70
2024/01/27 03:20:08;;;;;;;;;;;;;;;5.86;75.37;102227.00;4157259;28;19960;-69
2024/01/27 03:22:10;;;;;;;;;;;;;;;5.86;75.39;102232.34;4157588;28;20398;-70
2024/01/27 03:24:12;;;;;;;;;;;;;;;5.86;75.19;102229.66;4145840;28;20016;-69
2024/01/27 03:26:13;;;;;;;;;;;;;;;5.85;74.94;102241.38;4157529;28;20028;-70
2024/01/27 03:28:16;;;;;;;;;;;;;;;5.84;75.53;102231.63;4156377;28;19929;-69
2024/01/27 03:30:21;;;;;;;;;;;;;;;5.82;75.12;102231.72;4157006;28;20028;-69
2024/01/27 03:32:23;;;;;;;;;;;;;;;5.82;75.39;102231.72;4146523;28;20443;-70
2024/01/27 03:34:27;;;;;;;;;;;;;;;5.83;75.10;102235.25;4155768;28;20017;-69
2024/01/27 03:36:29;;;;;;;;;;;;;;;5.83;75.42;102240.63;4156629;28;20033;-70
2024/01/27 03:38:31;;;;;;;;;;;;;;;5.82;75.13;102246.97;4155869;28;20365;-70
2024/01/27 03:40:33;;;;;;;;;;;;;;;5.80;75.15;102249.75;4156142;28;20012;-70
2024/01/27 03:42:35;;;;;;;;;;;;;;;5.80;75.08;102255.13;4155786;28;19971;-70
2024/01/27 03:44:37;;;;;;;;;;;;;;;5.80;75.31;102254.25;4156589;28;20047;-70
2024/01/27 03:46:40;;;;;;;;;;;;;;;5.78;75.32;102244.50;4156504;28;20040;-70
2024/01/27 03:48:42;;;;;;;;;;;;;;;5.77;75.32;102245.47;4156885;28;20023;-70
2024/01/27 03:50:44;;;;;;;;;;;;;;;5.77;75.21;102247.28;4156028;28;20019;-70
2024/01/27 03:52:46;;;;;;;;;;;;;;;5.77;75.54;102244.59;4156854;28;19960;-68
2024/01/27 03:54:48;;;;;;;;;;;;;;;5.75;75.17;102244.72;4155854;28;20020;-68
2024/01/27 03:56:50;;;;;;;;;;;;;;;5.74;75.05;102252.88;4153498;28;20036;-68
2024/01/27 03:58:52;;;;;;;;;;;;;;;5.71;75.31;102253.94;4155292;28;20035;-69
2024/01/27 04:00:54;;;;;;;;;;;;;;;5.71;75.31;102255.75;4155747;28;20486;-70
2024/01/27 04:02:57;;;;;;;;;;;;;;;5.70;75.44;102267.44;4145959;28;20502;-69
2024/01/27 04:04:59;;;;;;;;;;;;;;;5.69;75.24;102258.56;4156691;28;20820;-70
2024/01/27 04:07:02;;;;;;;;;;;;;;;5.67;75.37;102255.09;4156016;28;20020;-70
2024/01/27 04:09:04;;;;;;;;;;;;;;;5.65;75.46;102258.88;4156642;28;20015;-70
2024/01/27 04:11:06;;;;;;;;;;;;;;;5.64;75.51;102268.72;4156253;28;20039;-70
2024/01/27 04:13:08;;;;;;;;;;;;;;;5.63;75.39;102267.03;4155777;28;20451;-70
2024/01/27 04:15:10;;;;;;;;;;;;;;;5.62;75.85;102278.69;4156479;28;20008;-70
2024/01/27 04:17:12;;;;;;;;;;;;;;;5.61;75.92;102279.66;4156600;28;19996;-70
2024/01/27 04:19:16;;;;;;;;;;;;;;;5.58;75.95;102283.41;4156313;28;20029;-70
2024/01/27 04:21:17;;;;;;;;;;;;;;;5.56;75.93;102287.16;4155600;28;20364;-70
2024/01/27 04:23:19;;;;;;;;;;;;;;;5.55;76.17;102290.81;4156453;28;20024;-70
2024/01/27 04:25:21;;;;;;;;;;;;;;;5.55;76.37;102302.41;4156025;28;20019;-69
2024/01/27 04:27:23;;;;;;;;;;;;;;;5.53;76.04;102304.34;4155496;28;20015;-69
2024/01/27 04:29:25;;;;;;;;;;;;;;;5.53;76.08;102317.72;4155300;28;20031;-68
2024/01/27 04:31:27;;;;;;;;;;;;;;;5.52;76.32;102299.94;4154783;28;20024;-68
2024/01/27 04:33:28;;;;;;;;;;;;;;;5.51;75.99;102310.75;4156046;28;20024;-68
2024/01/27 04:35:31;;;;;;;;;;;;;;;5.50;75.98;102314.38;4155702;28;19933;-69
2024/01/27 04:37:33;;;;;;;;;;;;;;;5.49;76.75;102308.19;4156375;28;20017;-68
2024/01/27 04:39:35;;;;;;;;;;;;;;;5.49;76.70;102310.00;4157970;28;19968;-68
2024/01/27 04:41:41;;;;;;;;;;;;;;;5.50;76.46;102322.41;4134428;28;20551;-69
2024/01/27 04:43:43;;;;;;;;;;;;;;;5.48;76.80;102338.59;4156848;28;20362;-68
2024/01/27 04:45:45;;;;;;;;;;;;;;;5.48;76.63;102340.44;4125574;28;19969;-70
2024/01/27 04:47:47;;;;;;;;;;;;;;;5.48;76.61;102340.44;4123623;28;20029;-69
2024/01/27 04:49:49;;;;;;;;;;;;;;;5.47;76.71;102339.59;4122639;28;20090;-68
2024/01/27 04:51:52;;;;;;;;;;;;;;;5.46;76.74;102342.38;4125048;28;19973;-70
2024/01/27 04:53:54;;;;;;;;;;;;;;;5.45;76.88;102336.13;4129524;28;20045;-69
2024/01/27 04:55:56;;;;;;;;;;;;;;;5.43;76.75;102331.88;4124702;28;20016;-69
2024/01/27 04:57:58;;;;;;;;;;;;;;;5.42;77.25;102336.34;4130019;28;19953;-68
2024/01/27 04:59:59;;;;;;;;;;;;;;;5.41;77.23;102351.56;4124216;28;20013;-68
2024/01/27 05:02:01;;;;;;;;;;;;;;;5.42;77.17;102365.81;4126343;28;20304;-70
2024/01/27 05:04:04;;;;;;;;;;;;;;;5.40;77.52;102365.91;4126482;28;19930;-69
2024/01/27 05:06:08;;;;;;;;;;;;;;;5.41;77.71;102361.44;4124079;28;19957;-70
2024/01/27 05:08:11;;;;;;;;;;;;;;;5.43;77.54;102369.38;4126256;28;19980;-70
2024/01/27 05:10:13;;;;;;;;;;;;;;;5.43;77.89;102372.06;4156474;28;20016;-69
2024/01/27 05:12:15;;;;;;;;;;;;;;;5.43;77.79;102380.09;4137640;28;20044;-70
2024/01/27 05:14:16;;;;;;;;;;;;;;;5.42;77.91;102376.53;4123888;28;19961;-69
2024/01/27 05:16:18;;;;;;;;;;;;;;;5.42;77.85;102371.19;4131435;28;20411;-70
2024/01/27 05:18:20;;;;;;;;;;;;;;;5.43;77.61;102378.25;4125168;28;20029;-70
2024/01/27 05:20:22;;;;;;;;;;;;;;;5.43;77.98;102377.41;4124892;28;20351;-69
2024/01/27 05:22:24;;;;;;;;;;;;;;;5.43;78.04;102386.31;4124738;28;19969;-70
2024/01/27 05:24:28;;;;;;;;;;;;;;;5.44;77.68;102376.44;4124067;28;19980;-70
2024/01/27 05:26:30;;;;;;;;;;;;;;;5.44;77.81;102385.34;4123443;28;20008;-70
2024/01/27 05:28:32;;;;;;;;;;;;;;;5.44;78.12;102385.34;4123050;28;20027;-69
2024/01/27 05:30:34;;;;;;;;;;;;;;;5.45;78.27;102379.00;4121623;28;20021;-70
2024/01/27 05:32:36;;;;;;;;;;;;;;;5.45;78.32;102379.00;4123800;28;19968;-69
2024/01/27 05:34:38;;;;;;;;;;;;;;;5.46;77.75;102377.22;4123981;28;20013;-69
2024/01/27 05:36:40;;;;;;;;;;;;;;;5.46;78.13;102386.09;4124859;28;20411;-69
2024/01/27 05:38:42;;;;;;;;;;;;;;;5.48;77.96;102388.69;4123102;28;20012;-67
2024/01/27 05:40:46;;;;;;;;;;;;;;;5.46;78.15;102388.78;4122472;28;20020;-69
2024/01/27 05:42:49;;;;;;;;;;;;;;;5.48;78.24;102386.84;4154380;28;20021;-69
2024/01/27 05:44:51;;;;;;;;;;;;;;;5.49;78.05;102385.91;4154364;28;20028;-70
2024/01/27 05:46:53;;;;;;;;;;;;;;;5.50;78.13;102392.09;4155502;28;20029;-68
2024/01/27 05:48:57;;;;;;;;;;;;;;;5.50;78.04;102384.94;4155564;28;20036;-69
2024/01/27 05:51:00;;;;;;;;;;;;;;;5.51;77.92;102386.63;4155127;28;20672;-70
2024/01/27 05:53:01;;;;;;;;;;;;;;;5.52;78.22;102384.84;4155018;28;20019;-67
2024/01/27 05:55:06;;;;;;;;;;;;;;;5.50;77.93;102379.59;4155392;28;20051;-70
2024/01/27 05:57:09;;;;;;;;;;;;;;;5.51;78.24;102383.13;4154676;28;20085;-68
2024/01/27 05:59:11;;;;;;;;;;;;;;;5.51;77.90;102388.47;4144140;28;20275;-66
2024/01/27 06:01:13;;;;;;;;;;;;;;;5.51;78.16;102388.47;4154563;28;20020;-70
2024/01/27 06:03:16;;;;;;;;;;;;;;;5.51;78.00;102391.16;4155000;28;20023;-70
2024/01/27 06:05:19;;;;;;;;;;;;;;;5.50;78.32;102392.09;4169788;28;19929;-69
2024/01/27 06:07:21;;;;;;;;;;;;;;;5.50;77.94;102394.78;4154971;28;20016;-70
2024/01/27 06:09:23;;;;;;;;;;;;;;;5.49;78.52;102395.75;4155075;28;20020;-69
2024/01/27 06:11:25;;;;;;;;;;;;;;;5.49;78.43;102399.28;4155057;28;20056;-69
2024/01/27 06:13:28;;;;;;;;;;;;;;;5.49;78.08;102407.34;4155116;28;20040;-69
2024/01/27 06:15:29;;;;;;;;;;;;;;;5.50;78.55;102413.53;4156645;28;19957;-70
2024/01/27 06:17:31;;;;;;;;;;;;;;;5.51;78.83;102423.31;4157125;28;20447;-70
2024/01/27 06:19:33;;;;;;;;;;;;;;;5.50;78.36;102425.16;4158142;28;20028;-68
2024/01/27 06:21:34;;;;;;;;;;;;;;;5.49;78.68;102410.00;4158012;28;20028;-68
2024/01/27 06:23:36;;;;;;;;;;;;;;;5.51;78.74;102423.31;4159461;28;20036;-69
2024/01/27 06:25:38;;;;;;;;;;;;;;;5.52;78.54;102423.22;4158483;28;20032;-69
2024/01/27 06:27:41;;;;;;;;;;;;;;;5.52;78.68;102425.03;4157262;28;20024;-69
2024/01/27 06:29:44;;;;;;;;;;;;;;;5.53;78.93;102424.94;4157855;28;20012;-69
2024/01/27 06:31:46;;;;;;;;;;;;;;;5.53;78.93;102426.75;4157223;28;20032;-70
2024/01/27 06:33:49;;;;;;;;;;;;;;;5.55;78.52;102435.56;4157748;28;20606;-70
2024/01/27 06:35:51;;;;;;;;;;;;;;;5.56;78.53;102447.97;4156233;28;20020;-69
2024/01/27 06:37:52;;;;;;;;;;;;;;;5.56;78.78;102448.84;4157638;28;20017;-70
2024/01/27 06:39:54;;;;;;;;;;;;;;;5.58;78.95;102452.28;4156927;28;20391;-69
2024/01/27 06:41:55;;;;;;;;;;;;;;;5.58;79.26;102451.44;4146215;28;20368;-68
2024/01/27 06:43:57;;;;;;;;;;;;;;;5.60;79.00;102455.72;4157529;28;20025;-69
2024/01/27 06:46:01;;;;;;;;;;;;;;;5.59;78.82;102456.69;4158100;28;19925;-69
2024/01/27 06:48:03;;;;;;;;;;;;;;;5.59;78.51;102467.41;4158006;28;20020;-67
2024/01/27 06:50:05;;;;;;;;;;;;;;;5.60;78.68;102469.13;4157379;28;20159;-70
2024/01/27 06:52:07;;;;;;;;;;;;;;;5.61;78.87;102467.28;4157241;28;20370;-68
2024/01/27 06:54:09;;;;;;;;;;;;;;;5.62;78.83;102476.22;4157255;28;20036;-68
2024/01/27 06:56:11;;;;;;;;;;;;;;;5.61;79.01;102469.97;4147082;28;20020;-70
2024/01/27 06:58:13;;;;;;;;;;;;;;;5.63;79.09;102477.91;4156772;28;20099;-69
2024/01/27 07:00:16;;;;;;;;;;;;;;;5.63;78.89;102484.16;4157691;28;20435;-69
2024/01/27 07:02:18;;;;;;;;;;;;;;;5.65;79.02;102492.09;4156987;28;20024;-69
2024/01/27 07:04:20;;;;;;;;;;;;;;;5.64;78.88;102493.03;4157685;28;20028;-68
2024/01/27 07:06:22;;;;;;;;;;;;;;;5.64;79.05;102495.72;4157203;28;19925;-68
2024/01/27 07:08:24;;;;;;;;;;;;;;;5.65;78.66;102510.84;4157102;28;20024;-68
2024/01/27 07:10:26;;;;;;;;;;;;;;;5.65;79.00;102509.03;4157458;28;20016;-67
2024/01/27 07:12:28;;;;;;;;;;;;;;;5.64;78.99;102506.44;4156853;28;20048;-68
2024/01/27 07:14:29;;;;;;;;;;;;;;;5.65;79.05;102509.03;4156688;28;20486;-70
2024/01/27 07:16:32;;;;;;;;;;;;;;;5.66;78.99;102523.28;4157335;28;19932;-69
2024/01/27 07:18:35;;;;;;;;;;;;;;;5.67;79.05;102519.66;4157276;28;20454;-69
2024/01/27 07:20:37;;;;;;;;;;;;;;;5.66;78.82;102524.16;4156854;28;20028;-69
2024/01/27 07:22:39;;;;;;;;;;;;;;;5.67;79.10;102519.66;4157867;28;20475;-69
2024/01/27 07:24:41;;;;;;;;;;;;;;;5.69;78.97;102518.59;4157528;28;20874;-68
2024/01/27 07:26:43;;;;;;;;;;;;;;;5.70;78.99;102524.81;4157649;28;20024;-68
2024/01/27 07:28:45;;;;;;;;;;;;;;;5.69;79.24;102526.63;4158103;28;21333;-69
2024/01/27 07:30:46;;;;;;;;;;;;;;;5.70;78.88;102532.84;4163739;28;19969;-70
2024/01/27 07:32:49;;;;;;;;;;;;;;;5.70;78.97;102532.84;4169918;28;19960;-70
2024/01/27 07:34:53;;;;;;;;;;;;;;;5.70;78.84;102533.69;4186342;28;19932;-66
2024/01/27 07:36:55;;;;;;;;;;;;;;;5.72;78.78;102538.97;4133972;28;19925;-70
2024/01/27 07:38:56;;;;;;;;;;;;;;;5.71;79.22;102546.16;4165387;28;19969;-71
2024/01/27 07:40:59;;;;;;;;;;;;;;;5.72;79.29;102542.53;4157309;28;19978;-71
2024/01/27 07:43:01;;;;;;;;;;;;;;;5.73;79.26;102554.09;4172442;28;20020;-71
2024/01/27 07:45:02;;;;;;;;;;;;;;;5.74;79.44;102567.41;4157798;28;20020;-71
2024/01/27 07:47:04;;;;;;;;;;;;;;;5.75;79.44;102560.19;4158062;28;20471;-70
2024/01/27 07:49:06;;;;;;;;;;;;;;;5.75;79.35;102553.03;4146921;28;20035;-69
2024/01/27 07:51:10;;;;;;;;;;;;;;;5.76;79.35;102565.47;4158972;28;20367;-70
2024/01/27 07:53:12;;;;;;;;;;;;;;;5.76;79.25;102570.84;4141468;28;19965;-70
2024/01/27 07:55:14;;;;;;;;;;;;;;;5.76;79.12;102569.97;4166729;28;19949;-66
2024/01/27 07:57:15;;;;;;;;;;;;;;;5.77;78.69;102577.06;4172074;28;20306;-67
2024/01/27 07:59:17;;;;;;;;;;;;;;;5.78;79.13;102565.38;4186674;28;19928;-67
2024/01/27 08:01:18;;;;;;;;;;;;;;;5.78;78.92;102585.00;4146406;28;19983;-69
2024/01/27 08:03:20;;;;;;;;;;;;;;;5.78;78.86;102589.50;4159366;28;20031;-69
2024/01/27 08:05:21;;;;;;;;;;;;;;;5.79;78.82;102575.16;4161896;28;19960;-69
2024/01/27 08:07:25;;;;;;;;;;;;;;;5.80;79.06;102590.28;4171709;28;20421;-70
2024/01/27 08:09:26;;;;;;;;;;;;;;;5.80;78.92;102589.41;4158286;28;20032;-69
2024/01/27 08:11:29;;;;;;;;;;;;;;;5.82;78.68;102595.53;4164738;28;20032;-69
2024/01/27 08:13:30;;;;;;;;;;;;;;;5.83;78.86;102599.94;4158440;28;20032;-69
2024/01/27 08:15:32;;;;;;;;;;;;;;;5.82;78.69;102590.19;4157970;28;19926;-69
2024/01/27 08:17:34;;;;;;;;;;;;;;;5.83;79.11;102579.34;4155892;28;20013;-69
2024/01/27 08:19:36;;;;;;;;;;;;;;;5.83;78.97;102592.75;4155398;28;20024;-69
2024/01/27 08:21:39;;;;;;;;;;;;;;;5.83;78.84;102586.50;4155713;28;20075;-69
2024/01/27 08:23:42;;;;;;;;;;;;;;;5.84;78.66;102586.41;4153658;28;20020;-69
2024/01/27 08:25:47;;;;;;;;;;;;;;;5.86;79.03;102589.00;4157121;28;20020;-69
2024/01/27 08:27:49;;;;;;;;;;;;;;;5.87;79.04;102590.72;4154953;28;19933;-68
2024/01/27 08:29:51;;;;;;;;;;;;;;;5.88;79.07;102592.47;4154152;28;20723;-66
2024/01/27 08:31:53;;;;;;;;;;;;;;;5.87;78.78;102591.59;4168793;28;20076;-67
2024/01/27 08:33:55;;;;;;;;;;;;;;;5.89;78.96;102602.22;4155239;28;20016;-67
2024/01/27 08:35:57;;;;;;;;;;;;;;;5.89;79.02;102615.63;4154762;28;20020;-68
2024/01/27 08:37:59;;;;;;;;;;;;;;;5.89;78.94;102616.50;4155015;28;20024;-65
2024/01/27 08:40:02;;;;;;;;;;;;;;;5.90;79.09;102610.16;4154214;28;20040;-65
2024/01/27 08:42:05;;;;;;;;;;;;;;;5.91;78.73;102617.25;4154789;28;20015;-66
2024/01/27 08:44:07;;;;;;;;;;;;;;;5.92;78.89;102607.38;4154721;28;20375;-67
2024/01/27 08:46:11;;;;;;;;;;;;;;;5.94;79.19;102618.84;4154965;28;20470;-67
2024/01/27 08:48:15;;;;;;;;;;;;;;;5.95;79.42;102617.91;4154043;28;19925;-67
2024/01/27 08:50:17;;;;;;;;;;;;;;;5.97;79.49;102623.19;4154569;28;20032;-67
2024/01/27 08:52:19;;;;;;;;;;;;;;;5.98;79.08;102625.78;4153745;28;20012;-67
2024/01/27 08:54:21;;;;;;;;;;;;;;;5.98;78.90;102623.09;4154907;28;20060;-66
2024/01/27 08:56:24;;;;;;;;;;;;;;;5.99;78.88;102618.56;4155493;28;20016;-66
2024/01/27 08:58:26;;;;;;;;;;;;;;;6.00;78.82;102613.13;4155558;28;20486;-69
2024/01/27 09:00:28;;;;;;;;;;;;;;;6.02;79.02;102632.66;4154628;28;20011;-67
2024/01/27 09:02:30;;;;;;;;;;;;;;;6.03;78.77;102638.88;4154940;28;20032;-66
2024/01/27 09:04:32;;;;;;;;;;;;;;;6.04;78.81;102637.94;4154714;28;20012;-66
2024/01/27 09:06:34;;;;;;;;;;;;;;;6.05;78.85;102645.88;4138381;28;20016;-69
2024/01/27 09:08:35;;;;;;;;;;;;;;;6.06;78.85;102634.16;4154139;28;20427;-67
2024/01/27 09:10:37;;;;;;;;;;;;;;;6.06;78.99;102631.50;4151789;28;20343;-68
2024/01/27 09:12:40;;;;;;;;;;;;;;;6.08;78.85;102628.72;4156365;28;20031;-69
2024/01/27 09:14:42;;;;;;;;;;;;;;;6.11;79.20;102647.28;4154117;28;20019;-69
2024/01/27 09:16:45;;;;;;;;;;;;;;;6.12;79.10;102640.97;4155602;28;20503;-68
2024/01/27 09:18:46;;;;;;;;;;;;;;;6.12;79.22;102647.19;4155096;28;20016;-68
2024/01/27 09:20:48;;;;;;;;;;;;;;;6.14;79.23;102644.41;4154700;28;19975;-67
2024/01/27 09:22:50;;;;;;;;;;;;;;;6.15;79.03;102662.22;4155132;28;20023;-68
2024/01/27 09:24:53;;;;;;;;;;;;;;;6.18;78.97;102643.25;4154665;28;20012;-67
2024/01/27 09:26:54;;;;;;;;;;;;;;;6.19;78.82;102655.72;4153529;28;20027;-68
2024/01/27 09:28:58;;;;;;;;;;;;;;;6.20;78.68;102653.88;4154735;28;20011;-67
2024/01/27 09:31:00;;;;;;;;;;;;;;;6.21;78.57;102648.41;4155020;28;20431;-69
2024/01/27 09:33:01;;;;;;;;;;;;;;;6.23;78.59;102659.03;4153999;28;20028;-69
2024/01/27 09:35:04;;;;;;;;;;;;;;;6.24;79.03;102666.13;4154748;28;20727;-68
2024/01/27 09:37:06;;;;;;;;;;;;;;;6.25;78.71;102658.00;4155227;28;20024;-69
2024/01/27 09:39:08;;;;;;;;;;;;;;;6.25;78.67;102663.34;4154916;28;20365;-68
2024/01/27 09:41:09;;;;;;;;;;;;;;;6.26;78.75;102666.88;4154052;28;20055;-68
2024/01/27 09:43:12;;;;;;;;;;;;;;;6.28;78.82;102679.22;4155916;28;20012;-67
2024/01/27 09:45:15;;;;;;;;;;;;;;;6.29;78.56;102675.59;4154527;28;20093;-69
2024/01/27 09:47:19;;;;;;;;;;;;;;;6.29;78.71;102675.59;4154844;28;20024;-68
2024/01/27 09:49:21;;;;;;;;;;;;;;;6.31;78.64;102668.28;4154784;28;20013;-67
2024/01/27 09:51:23;;;;;;;;;;;;;;;6.32;78.37;102679.91;4154447;28;20048;-68
2024/01/27 09:53:24;;;;;;;;;;;;;;;6.33;78.21;102670.88;4145789;28;20066;-69
2024/01/27 09:55:26;;;;;;;;;;;;;;;6.33;78.57;102676.25;4158812;28;20004;-68
2024/01/27 09:57:28;;;;;;;;;;;;;;;6.34;78.32;102691.38;4158383;28;20024;-68
2024/01/27 09:59:30;;;;;;;;;;;;;;;6.35;78.06;102670.78;4158880;28;20032;-69
2024/01/27 10:01:34;;;;;;;;;;;;;;;6.36;78.11;102681.41;4158263;28;20350;-69
2024/01/27 10:03:36;;;;;;;;;;;;;;;6.35;78.21;102681.50;4159378;28;20012;-70
2024/01/27 10:05:37;;;;;;;;;;;;;;;6.37;78.14;102684.97;4158251;28;20021;-69
2024/01/27 10:07:40;;;;;;;;;;;;;;;6.37;78.41;102688.50;4158995;28;20020;-69
2024/01/27 10:09:42;;;;;;;;;;;;;;;6.37;78.28;102691.19;4157961;28;19926;-68
2024/01/27 10:11:45;;;;;;;;;;;;;;;6.37;78.21;102683.13;4145929;28;20024;-69
2024/01/27 10:13:54;;;;;;;;;;;;;;;6.40;78.23;102682.09;4146255;28;20382;-69
2024/01/27 10:16:02;;;;;;;;;;;;;;;6.41;78.34;102683.78;4158582;28;20024;-66
2024/01/27 10:18:08;;;;;;;;;;;;;;;6.41;78.24;102681.97;4158456;28;20024;-68
2024/01/27 10:20:13;;;;;;;;;;;;;;;6.42;78.42;102682.84;4157459;28;20027;-68
2024/01/27 10:22:15;;;;;;;;;;;;;;;6.42;78.17;102693.56;4156133;28;20017;-68
2024/01/27 10:24:17;;;;;;;;;;;;;;;6.43;78.18;102695.31;4156458;28;19926;-68
2024/01/27 10:26:19;;;;;;;;;;;;;;;6.43;78.43;102685.41;4157075;28;20028;-68
2024/01/27 10:28:22;;;;;;;;;;;;;;;6.46;78.17;102687.91;4156725;28;20004;-69
2024/01/27 10:30:24;;;;;;;;;;;;;;;6.46;78.25;102685.22;4146130;28;19949;-68
2024/01/27 10:32:26;;;;;;;;;;;;;;;6.49;77.87;102694.91;4156068;28;20304;-68
2024/01/27 10:34:29;;;;;;;;;;;;;;;6.49;78.08;102702.94;4156737;28;20025;-69
2024/01/27 10:36:41;;;;;;;;;;;;;;;6.48;78.17;102693.16;4156492;28;20028;-69